sensor_id;sensor_type;location;lat;lon;timestamp;pressure;altitude;pressure_sealevel;temperature;humidity
38033;BME280;23841;48.524;1.342;2023-11-19T00:00:16;99215.72;;;14.08;71.91
38033;BME280;23841;48.524;1.342;2023-11-19T00:02:42;99218.34;;;14.09;71.78
38033;BME280;23841;48.524;1.342;2023-11-19T00:05:08;99217.47;;;14.09;71.83
38033;BME280;23841;48.524;1.342;2023-11-19T00:07:37;99218.28;;;14.11;71.80
38033;BME280;23841;48.524;1.342;2023-11-19T00:10:08;99221.91;;;14.10;71.75
38033;BME280;23841;48.524;1.342;2023-11-19T00:12:35;99228.03;;;14.12;71.88
38033;BME280;23841;48.524;1.342;2023-11-19T00:15:01;99223.63;;;14.11;71.79
38033;BME280;23841;48.524;1.342;2023-11-19T00:17:27;99226.22;;;14.12;71.90
38033;BME280;23841;48.524;1.342;2023-11-19T00:19:52;99227.13;;;14.13;71.67
38033;BME280;23841;48.524;1.342;2023-11-19T00:22:17;99215.53;;;14.12;71.77
38033;BME280;23841;48.524;1.342;2023-11-19T00:24:43;99220.03;;;14.12;71.96
38033;BME280;23841;48.524;1.342;2023-11-19T00:27:10;99235.13;;;14.13;71.70
38033;BME280;23841;48.524;1.342;2023-11-19T00:29:35;99223.50;;;14.14;71.73
38033;BME280;23841;48.524;1.342;2023-11-19T00:32:01;99232.41;;;14.14;71.89
38033;BME280;23841;48.524;1.342;2023-11-19T00:34:27;99220.81;;;14.14;71.64
38033;BME280;23841;48.524;1.342;2023-11-19T00:36:52;99230.59;;;14.15;71.88
38033;BME280;23841;48.524;1.342;2023-11-19T00:39:17;99230.59;;;14.15;71.80
38033;BME280;23841;48.524;1.342;2023-11-19T00:41:43;99231.41;;;14.17;71.73
38033;BME280;23841;48.524;1.342;2023-11-19T00:44:08;99227.84;;;14.16;71.87
38033;BME280;23841;48.524;1.342;2023-11-19T00:46:34;99234.09;;;14.17;71.75
38033;BME280;23841;48.524;1.342;2023-11-19T00:48:59;99229.59;;;14.17;71.73
38033;BME280;23841;48.524;1.342;2023-11-19T00:51:26;99218.06;;;14.17;71.78
38033;BME280;23841;48.524;1.342;2023-11-19T00:53:51;99223.41;;;14.17;71.69
38033;BME280;23841;48.524;1.342;2023-11-19T00:56:18;99211.75;;;14.18;71.72
38033;BME280;23841;48.524;1.342;2023-11-19T00:58:45;99215.31;;;14.19;71.76
38033;BME280;23841;48.524;1.342;2023-11-19T01:01:13;99218.00;;;14.19;71.78
38033;BME280;23841;48.524;1.342;2023-11-19T01:03:38;99210.84;;;14.19;71.63
38033;BME280;23841;48.524;1.342;2023-11-19T01:06:04;99209.94;;;14.20;71.69
38033;BME280;23841;48.524;1.342;2023-11-19T01:08:30;99224.19;;;14.19;71.75
38033;BME280;23841;48.524;1.342;2023-11-19T01:10:55;99222.44;;;14.20;71.77
38033;BME280;23841;48.524;1.342;2023-11-19T01:13:21;99233.97;;;14.20;71.65
38033;BME280;23841;48.524;1.342;2023-11-19T01:15:46;99225.97;;;14.20;71.76
38033;BME280;23841;48.524;1.342;2023-11-19T01:18:13;99225.88;;;14.22;71.61
38033;BME280;23841;48.524;1.342;2023-11-19T01:20:39;99220.56;;;14.22;71.83
38033;BME280;23841;48.524;1.342;2023-11-19T01:23:04;99233.84;;;14.23;71.75
38033;BME280;23841;48.524;1.342;2023-11-19T01:25:30;99220.56;;;14.22;71.79
38033;BME280;23841;48.524;1.342;2023-11-19T01:27:55;99229.41;;;14.22;71.60
38033;BME280;23841;48.524;1.342;2023-11-19T01:30:24;99217.88;;;14.22;71.81
38033;BME280;23841;48.524;1.342;2023-11-19T01:32:49;99224.09;;;14.22;71.68
38033;BME280;23841;48.524;1.342;2023-11-19T01:35:15;99224.91;;;14.24;71.51
38033;BME280;23841;48.524;1.342;2023-11-19T01:37:40;99222.31;;;14.23;71.59
38033;BME280;23841;48.524;1.342;2023-11-19T01:40:06;99224.06;;;14.24;71.81
38033;BME280;23841;48.524;1.342;2023-11-19T01:42:40;99207.06;;;14.25;71.60
38033;BME280;23841;48.524;1.342;2023-11-19T01:45:06;99214.22;;;14.24;71.60
38033;BME280;23841;48.524;1.342;2023-11-19T01:47:33;99204.41;;;14.25;71.62
38033;BME280;23841;48.524;1.342;2023-11-19T01:50:01;99199.94;;;14.25;71.78
38033;BME280;23841;48.524;1.342;2023-11-19T01:52:27;99205.28;;;14.25;71.78
38033;BME280;23841;48.524;1.342;2023-11-19T01:54:53;99205.28;;;14.25;71.60
38033;BME280;23841;48.524;1.342;2023-11-19T01:57:22;99215.03;;;14.26;71.64
38033;BME280;23841;48.524;1.342;2023-11-19T01:59:49;99199.94;;;14.25;71.62
38033;BME280;23841;48.524;1.342;2023-11-19T02:02:16;99210.63;;;14.25;71.47
38033;BME280;23841;48.524;1.342;2023-11-19T02:04:47;99204.34;;;14.26;71.43
38033;BME280;23841;48.524;1.342;2023-11-19T02:07:13;99195.41;;;14.27;71.44
38033;BME280;23841;48.524;1.342;2023-11-19T02:09:42;99204.28;;;14.28;71.47
38033;BME280;23841;48.524;1.342;2023-11-19T02:12:08;99198.13;;;14.26;71.56
38033;BME280;23841;48.524;1.342;2023-11-19T02:14:34;99200.75;;;14.27;71.59
38033;BME280;23841;48.524;1.342;2023-11-19T02:17:00;99200.75;;;14.27;71.60
38033;BME280;23841;48.524;1.342;2023-11-19T02:19:25;99204.25;;;14.29;71.65
38033;BME280;23841;48.524;1.342;2023-11-19T02:21:50;99195.34;;;14.29;71.66
38033;BME280;23841;48.524;1.342;2023-11-19T02:24:17;99192.72;;;14.27;71.40
38033;BME280;23841;48.524;1.342;2023-11-19T02:26:59;99192.59;;;14.30;71.51
38033;BME280;23841;48.524;1.342;2023-11-19T02:29:27;99201.56;;;14.29;71.40
38033;BME280;23841;48.524;1.342;2023-11-19T02:31:53;99199.81;;;14.28;71.53
38033;BME280;23841;48.524;1.342;2023-11-19T02:34:20;99209.53;;;14.31;71.55
38033;BME280;23841;48.524;1.342;2023-11-19T02:36:47;99208.63;;;14.30;71.56
38033;BME280;23841;48.524;1.342;2023-11-19T02:39:12;99214.88;;;14.31;71.71
38033;BME280;23841;48.524;1.342;2023-11-19T02:41:38;99203.28;;;14.30;71.44
38033;BME280;23841;48.524;1.342;2023-11-19T02:44:06;99215.72;;;14.31;71.52
38033;BME280;23841;48.524;1.342;2023-11-19T02:46:31;99204.19;;;14.31;71.40
38033;BME280;23841;48.524;1.342;2023-11-19T02:48:57;99196.22;;;14.29;71.44
38033;BME280;23841;48.524;1.342;2023-11-19T02:51:22;99183.66;;;14.31;71.58
38033;BME280;23841;48.524;1.342;2023-11-19T02:53:48;99189.00;;;14.31;71.58
38033;BME280;23841;48.524;1.342;2023-11-19T02:56:14;99192.53;;;14.32;71.44
38033;BME280;23841;48.524;1.342;2023-11-19T02:58:50;99186.28;;;14.33;71.47
38033;BME280;23841;48.524;1.342;2023-11-19T03:01:22;99187.19;;;14.32;71.35
38033;BME280;23841;48.524;1.342;2023-11-19T03:03:57;99169.38;;;14.32;71.48
38033;BME280;23841;48.524;1.342;2023-11-19T03:06:23;99162.28;;;14.31;71.59
38033;BME280;23841;48.524;1.342;2023-11-19T03:08:49;99164.03;;;14.32;71.46
38033;BME280;23841;48.524;1.342;2023-11-19T03:11:15;99164.97;;;14.31;71.55
38033;BME280;23841;48.524;1.342;2023-11-19T03:13:40;99169.38;;;14.32;71.62
38033;BME280;23841;48.524;1.342;2023-11-19T03:16:07;99174.72;;;14.32;71.46
38033;BME280;23841;48.524;1.342;2023-11-19T03:18:32;99165.88;;;14.30;71.46
38033;BME280;23841;48.524;1.342;2023-11-19T03:20:58;99163.16;;;14.32;71.30
38033;BME280;23841;48.524;1.342;2023-11-19T03:23:24;99166.72;;;14.32;71.60
38033;BME280;23841;48.524;1.342;2023-11-19T03:25:50;99173.81;;;14.33;71.54
38033;BME280;23841;48.524;1.342;2023-11-19T03:28:15;99176.47;;;14.33;71.44
38033;BME280;23841;48.524;1.342;2023-11-19T03:30:40;99176.47;;;14.33;71.58
38033;BME280;23841;48.524;1.342;2023-11-19T03:33:06;99180.00;;;14.34;71.40
38033;BME280;23841;48.524;1.342;2023-11-19T03:35:31;99181.81;;;14.33;71.39
38033;BME280;23841;48.524;1.342;2023-11-19T03:37:58;99181.81;;;14.33;71.46
38033;BME280;23841;48.524;1.342;2023-11-19T03:40:23;99179.16;;;14.33;71.45
38033;BME280;23841;48.524;1.342;2023-11-19T03:42:50;99191.56;;;14.34;71.49
38033;BME280;23841;48.524;1.342;2023-11-19T03:45:16;99188.88;;;14.34;71.54
38033;BME280;23841;48.524;1.342;2023-11-19T03:47:41;99190.63;;;14.36;71.37
38033;BME280;23841;48.524;1.342;2023-11-19T03:50:07;99188.03;;;14.34;71.58
38033;BME280;23841;48.524;1.342;2023-11-19T03:52:34;99187.97;;;14.36;71.33
38033;BME280;23841;48.524;1.342;2023-11-19T03:54:59;99186.16;;;14.36;71.48
38033;BME280;23841;48.524;1.342;2023-11-19T03:57:27;99181.69;;;14.37;71.29
38033;BME280;23841;48.524;1.342;2023-11-19T03:59:53;99187.03;;;14.37;71.56
38033;BME280;23841;48.524;1.342;2023-11-19T04:02:18;99186.16;;;14.36;71.44
38033;BME280;23841;48.524;1.342;2023-11-19T04:04:44;99179.94;;;14.36;71.55
38033;BME280;23841;48.524;1.342;2023-11-19T04:07:09;99179.94;;;14.36;71.49
38033;BME280;23841;48.524;1.342;2023-11-19T04:09:35;99178.13;;;14.36;71.60
38033;BME280;23841;48.524;1.342;2023-11-19T04:12:03;99175.53;;;14.34;71.41
38033;BME280;23841;48.524;1.342;2023-11-19T04:14:28;99172.78;;;14.36;71.41
38033;BME280;23841;48.524;1.342;2023-11-19T04:16:54;99171.00;;;14.37;71.59
38033;BME280;23841;48.524;1.342;2023-11-19T04:19:19;99175.38;;;14.38;71.36
38033;BME280;23841;48.524;1.342;2023-11-19T04:21:45;99181.69;;;14.37;71.29
38033;BME280;23841;48.524;1.342;2023-11-19T04:24:12;99188.75;;;14.38;71.36
38033;BME280;23841;48.524;1.342;2023-11-19T04:26:43;99186.09;;;14.38;71.52
38033;BME280;23841;48.524;1.342;2023-11-19T04:29:12;99191.41;;;14.38;71.48
38033;BME280;23841;48.524;1.342;2023-11-19T04:31:38;99195.00;;;14.38;71.29
38033;BME280;23841;48.524;1.342;2023-11-19T04:34:04;99195.00;;;14.38;71.42
38033;BME280;23841;48.524;1.342;2023-11-19T04:36:29;99183.41;;;14.38;71.32
38033;BME280;23841;48.524;1.342;2023-11-19T04:38:55;99183.41;;;14.38;71.21
38033;BME280;23841;48.524;1.342;2023-11-19T04:41:20;99186.09;;;14.38;71.44
38033;BME280;23841;48.524;1.342;2023-11-19T04:43:46;99190.50;;;14.39;71.49
38033;BME280;23841;48.524;1.342;2023-11-19T04:46:11;99187.84;;;14.39;71.20
38033;BME280;23841;48.524;1.342;2023-11-19T04:48:37;99190.56;;;14.37;71.23
38033;BME280;23841;48.524;1.342;2023-11-19T04:51:04;99188.75;;;14.38;71.17
38033;BME280;23841;48.524;1.342;2023-11-19T04:53:30;99179.00;;;14.37;71.23
38033;BME280;23841;48.524;1.342;2023-11-19T04:55:56;99179.81;;;14.39;71.38
38033;BME280;23841;48.524;1.342;2023-11-19T04:58:21;99174.47;;;14.39;71.18
38033;BME280;23841;48.524;1.342;2023-11-19T05:00:46;99178.94;;;14.38;71.28
38033;BME280;23841;48.524;1.342;2023-11-19T05:03:12;99183.41;;;14.38;71.30
38033;BME280;23841;48.524;1.342;2023-11-19T05:05:37;99184.38;;;14.37;71.45
38033;BME280;23841;48.524;1.342;2023-11-19T05:08:03;99191.41;;;14.38;71.17
38033;BME280;23841;48.524;1.342;2023-11-19T05:10:28;99190.50;;;14.39;71.28
38033;BME280;23841;48.524;1.342;2023-11-19T05:12:54;99193.25;;;14.37;71.29
38033;BME280;23841;48.524;1.342;2023-11-19T05:15:21;99184.28;;;14.38;71.19
38033;BME280;23841;48.524;1.342;2023-11-19T05:17:47;99184.28;;;14.38;71.47
38033;BME280;23841;48.524;1.342;2023-11-19T05:20:12;99190.56;;;14.37;71.29
38033;BME280;23841;48.524;1.342;2023-11-19T05:22:41;99200.34;;;14.38;71.19
38033;BME280;23841;48.524;1.342;2023-11-19T05:25:07;99202.94;;;14.40;71.31
38033;BME280;23841;48.524;1.342;2023-11-19T05:27:37;99202.13;;;14.38;71.18
38033;BME280;23841;48.524;1.342;2023-11-19T05:30:05;99193.19;;;14.39;71.28
38033;BME280;23841;48.524;1.342;2023-11-19T05:32:36;99201.19;;;14.39;71.27
38033;BME280;23841;48.524;1.342;2023-11-19T05:35:01;99200.34;;;14.38;71.16
38033;BME280;23841;48.524;1.342;2023-11-19T05:37:27;99206.53;;;14.39;71.10
38033;BME280;23841;48.524;1.342;2023-11-19T05:39:52;99208.34;;;14.38;71.11
38033;BME280;23841;48.524;1.342;2023-11-19T05:42:18;99210.97;;;14.40;71.22
38033;BME280;23841;48.524;1.342;2023-11-19T05:44:43;99212.81;;;14.38;71.20
38033;BME280;23841;48.524;1.342;2023-11-19T05:47:09;99206.53;;;14.39;71.13
38033;BME280;23841;48.524;1.342;2023-11-19T05:49:34;99212.78;;;14.39;70.99
38033;BME280;23841;48.524;1.342;2023-11-19T05:52:00;99206.53;;;14.39;71.05
38033;BME280;23841;48.524;1.342;2023-11-19T05:54:27;99211.88;;;14.39;71.21
38033;BME280;23841;48.524;1.342;2023-11-19T05:56:52;99218.13;;;14.39;71.06
38033;BME280;23841;48.524;1.342;2023-11-19T05:59:19;99218.97;;;14.40;71.03
38033;BME280;23841;48.524;1.342;2023-11-19T06:01:45;99223.47;;;14.39;70.84
38033;BME280;23841;48.524;1.342;2023-11-19T06:04:11;99222.56;;;14.39;71.00
38033;BME280;23841;48.524;1.342;2023-11-19T06:06:37;99218.13;;;14.39;71.18
38033;BME280;23841;48.524;1.342;2023-11-19T06:09:03;99223.47;;;14.39;71.10
38033;BME280;23841;48.524;1.342;2023-11-19T06:11:29;99227.91;;;14.39;70.98
38033;BME280;23841;48.524;1.342;2023-11-19T06:13:54;99229.66;;;14.40;71.06
38033;BME280;23841;48.524;1.342;2023-11-19T06:16:21;99220.81;;;14.38;71.09
38033;BME280;23841;48.524;1.342;2023-11-19T06:18:46;99218.13;;;14.39;71.07
38033;BME280;23841;48.524;1.342;2023-11-19T06:21:12;99223.47;;;14.39;71.01
38033;BME280;23841;48.524;1.342;2023-11-19T06:23:38;99216.38;;;14.38;71.03
38033;BME280;23841;48.524;1.342;2023-11-19T06:26:03;99219.03;;;14.38;70.75
38033;BME280;23841;48.524;1.342;2023-11-19T06:28:30;99222.56;;;14.39;70.73
38033;BME280;23841;48.524;1.342;2023-11-19T06:30:56;99229.66;;;14.40;71.06
38033;BME280;23841;48.524;1.342;2023-11-19T06:33:23;99237.69;;;14.40;70.99
38033;BME280;23841;48.524;1.342;2023-11-19T06:35:49;99237.75;;;14.38;70.74
38033;BME280;23841;48.524;1.342;2023-11-19T06:38:14;99223.50;;;14.38;70.93
38033;BME280;23841;48.524;1.342;2023-11-19T06:40:40;99228.81;;;14.39;70.87
38033;BME280;23841;48.524;1.342;2023-11-19T06:43:06;99228.81;;;14.39;70.89
38033;BME280;23841;48.524;1.342;2023-11-19T06:45:33;99243.09;;;14.38;70.99
38033;BME280;23841;48.524;1.342;2023-11-19T06:48:03;99229.72;;;14.38;70.89
38033;BME280;23841;48.524;1.342;2023-11-19T06:50:29;99236.84;;;14.38;70.70
38033;BME280;23841;48.524;1.342;2023-11-19T06:52:54;99227.06;;;14.38;70.96
38033;BME280;23841;48.524;1.342;2023-11-19T06:55:20;99220.81;;;14.38;70.78
38033;BME280;23841;48.524;1.342;2023-11-19T06:57:45;99226.16;;;14.38;70.78
38033;BME280;23841;48.524;1.342;2023-11-19T07:00:11;99220.81;;;14.38;70.76
38033;BME280;23841;48.524;1.342;2023-11-19T07:02:37;99223.50;;;14.38;70.80
38033;BME280;23841;48.524;1.342;2023-11-19T07:05:02;99236.91;;;14.36;70.81
38033;BME280;23841;48.524;1.342;2023-11-19T07:07:31;99239.53;;;14.38;70.75
38033;BME280;23841;48.524;1.342;2023-11-19T07:09:57;99242.19;;;14.38;70.89
38033;BME280;23841;48.524;1.342;2023-11-19T07:12:22;99251.09;;;14.38;70.84
38033;BME280;23841;48.524;1.342;2023-11-19T07:14:47;99252.03;;;14.37;70.93
38033;BME280;23841;48.524;1.342;2023-11-19T07:17:13;99250.28;;;14.36;70.76
38033;BME280;23841;48.524;1.342;2023-11-19T07:19:39;99251.16;;;14.37;70.74
38033;BME280;23841;48.524;1.342;2023-11-19T07:22:05;99240.47;;;14.37;70.76
38033;BME280;23841;48.524;1.342;2023-11-19T07:24:31;99234.25;;;14.36;70.67
38033;BME280;23841;48.524;1.342;2023-11-19T07:26:56;99239.59;;;14.36;70.77
38033;BME280;23841;48.524;1.342;2023-11-19T07:29:22;99248.50;;;14.37;70.74
38033;BME280;23841;48.524;1.342;2023-11-19T07:31:51;99245.81;;;14.37;70.74
38033;BME280;23841;48.524;1.342;2023-11-19T07:34:16;99242.31;;;14.34;70.93
38033;BME280;23841;48.524;1.342;2023-11-19T07:36:42;99247.59;;;14.36;70.70
38033;BME280;23841;48.524;1.342;2023-11-19T07:39:07;99243.16;;;14.37;70.61
38033;BME280;23841;48.524;1.342;2023-11-19T07:41:33;99249.41;;;14.36;70.80
38033;BME280;23841;48.524;1.342;2023-11-19T07:43:59;99254.75;;;14.36;70.78
38033;BME280;23841;48.524;1.342;2023-11-19T07:46:25;99245.88;;;14.35;70.82
38033;BME280;23841;48.524;1.342;2023-11-19T07:48:51;99243.22;;;14.35;70.75
38033;BME280;23841;48.524;1.342;2023-11-19T07:51:17;99253.00;;;14.34;70.58
38033;BME280;23841;48.524;1.342;2023-11-19T07:53:42;99252.09;;;14.36;70.66
38033;BME280;23841;48.524;1.342;2023-11-19T07:56:08;99255.69;;;14.34;70.72
38033;BME280;23841;48.524;1.342;2023-11-19T07:58:34;99253.97;;;14.33;70.71
38033;BME280;23841;48.524;1.342;2023-11-19T08:01:00;99268.13;;;14.36;70.85
38033;BME280;23841;48.524;1.342;2023-11-19T08:03:27;99268.13;;;14.36;70.67
38033;BME280;23841;48.524;1.342;2023-11-19T08:05:55;99271.66;;;14.36;70.69
38033;BME280;23841;48.524;1.342;2023-11-19T08:08:21;99276.13;;;14.36;70.88
38033;BME280;23841;48.524;1.342;2023-11-19T08:10:46;99292.16;;;14.36;70.78
38033;BME280;23841;48.524;1.342;2023-11-19T08:13:13;99289.56;;;14.34;70.71
38033;BME280;23841;48.524;1.342;2023-11-19T08:15:38;99294.03;;;14.33;70.62
38033;BME280;23841;48.524;1.342;2023-11-19T08:18:04;99295.75;;;14.34;70.74
38033;BME280;23841;48.524;1.342;2023-11-19T08:20:30;99306.44;;;14.34;70.55
38033;BME280;23841;48.524;1.342;2023-11-19T08:22:55;99306.44;;;14.34;70.71
38033;BME280;23841;48.524;1.342;2023-11-19T08:25:21;99317.13;;;14.34;70.48
38033;BME280;23841;48.524;1.342;2023-11-19T08:27:46;99304.72;;;14.33;70.71
38033;BME280;23841;48.524;1.342;2023-11-19T08:30:12;99306.44;;;14.34;70.68
38033;BME280;23841;48.524;1.342;2023-11-19T08:32:38;99299.38;;;14.33;70.64
38033;BME280;23841;48.524;1.342;2023-11-19T08:35:03;99307.34;;;14.35;70.58
38033;BME280;23841;48.524;1.342;2023-11-19T08:37:29;99306.44;;;14.34;70.57
38033;BME280;23841;48.524;1.342;2023-11-19T08:39:54;99313.59;;;14.34;70.54
38033;BME280;23841;48.524;1.342;2023-11-19T08:42:20;99315.38;;;14.35;70.61
38033;BME280;23841;48.524;1.342;2023-11-19T08:44:50;99307.34;;;14.35;70.60
38033;BME280;23841;48.524;1.342;2023-11-19T08:47:19;99302.06;;;14.33;70.42
38033;BME280;23841;48.524;1.342;2023-11-19T08:49:45;99309.13;;;14.34;70.72
38033;BME280;23841;48.524;1.342;2023-11-19T08:52:11;99316.22;;;14.36;70.71
38033;BME280;23841;48.524;1.342;2023-11-19T08:54:42;99318.03;;;14.35;70.45
38033;BME280;23841;48.524;1.342;2023-11-19T08:57:08;99316.22;;;14.36;70.58
38033;BME280;23841;48.524;1.342;2023-11-19T08:59:34;99316.22;;;14.36;70.47
38033;BME280;23841;48.524;1.342;2023-11-19T09:01:59;99326.00;;;14.37;70.52
38033;BME280;23841;48.524;1.342;2023-11-19T09:04:25;99318.09;;;14.33;70.56
38033;BME280;23841;48.524;1.342;2023-11-19T09:06:50;99310.06;;;14.33;70.62
38033;BME280;23841;48.524;1.342;2023-11-19T09:09:16;99306.44;;;14.34;70.54
38033;BME280;23841;48.524;1.342;2023-11-19T09:11:42;99308.22;;;14.36;70.56
38033;BME280;23841;48.524;1.342;2023-11-19T09:14:07;99306.44;;;14.34;70.47
38033;BME280;23841;48.524;1.342;2023-11-19T09:16:33;99313.53;;;14.36;70.61
38033;BME280;23841;48.524;1.342;2023-11-19T09:18:58;99313.53;;;14.36;70.48
38033;BME280;23841;48.524;1.342;2023-11-19T09:21:25;99311.75;;;14.36;70.63
38033;BME280;23841;48.524;1.342;2023-11-19T09:23:51;99302.84;;;14.36;70.67
38033;BME280;23841;48.524;1.342;2023-11-19T09:26:18;99307.28;;;14.37;70.61
38033;BME280;23841;48.524;1.342;2023-11-19T09:28:43;99297.50;;;14.36;70.42
38033;BME280;23841;48.524;1.342;2023-11-19T09:31:16;99299.28;;;14.37;70.65
38033;BME280;23841;48.524;1.342;2023-11-19T09:33:42;99299.28;;;14.37;70.60
38033;BME280;23841;48.524;1.342;2023-11-19T09:36:08;99293.91;;;14.37;70.51
38033;BME280;23841;48.524;1.342;2023-11-19T09:38:34;99301.03;;;14.36;70.58
38033;BME280;23841;48.524;1.342;2023-11-19T09:41:06;99306.34;;;14.38;70.71
38033;BME280;23841;48.524;1.342;2023-11-19T09:43:34;99315.31;;;14.37;70.57
38033;BME280;23841;48.524;1.342;2023-11-19T09:46:04;99317.03;;;14.38;70.43
38033;BME280;23841;48.524;1.342;2023-11-19T09:48:36;99317.03;;;14.38;70.52
38033;BME280;23841;48.524;1.342;2023-11-19T09:51:06;99315.31;;;14.37;70.59
38033;BME280;23841;48.524;1.342;2023-11-19T09:53:32;99317.03;;;14.38;70.44
38033;BME280;23841;48.524;1.342;2023-11-19T09:56:00;99317.00;;;14.39;70.51
38033;BME280;23841;48.524;1.342;2023-11-19T09:58:29;99320.59;;;14.38;70.50
38033;BME280;23841;48.524;1.342;2023-11-19T10:00:54;99314.34;;;14.38;70.42
38033;BME280;23841;48.524;1.342;2023-11-19T10:03:21;99316.09;;;14.39;70.66
38033;BME280;23841;48.524;1.342;2023-11-19T10:05:48;99311.66;;;14.39;70.68
38033;BME280;23841;48.524;1.342;2023-11-19T10:08:14;99315.19;;;14.40;70.70
38033;BME280;23841;48.524;1.342;2023-11-19T10:10:39;99315.19;;;14.40;70.60
38033;BME280;23841;48.524;1.342;2023-11-19T10:13:05;99310.69;;;14.40;70.75
38033;BME280;23841;48.524;1.342;2023-11-19T10:15:36;99314.25;;;14.41;70.79
38033;BME280;23841;48.524;1.342;2023-11-19T10:18:02;99323.06;;;14.43;70.87
38033;BME280;23841;48.524;1.342;2023-11-19T10:20:35;99320.41;;;14.43;70.83
38033;BME280;23841;48.524;1.342;2023-11-19T10:23:00;99332.84;;;14.44;71.24
38033;BME280;23841;48.524;1.342;2023-11-19T10:25:27;99315.94;;;14.43;71.08
38033;BME280;23841;48.524;1.342;2023-11-19T10:27:54;99337.28;;;14.45;70.93
38033;BME280;23841;48.524;1.342;2023-11-19T10:30:27;99336.31;;;14.46;71.06
38033;BME280;23841;48.524;1.342;2023-11-19T10:33:09;99331.88;;;14.46;71.19
38033;BME280;23841;48.524;1.342;2023-11-19T10:35:36;99325.63;;;14.46;71.29
38033;BME280;23841;48.524;1.342;2023-11-19T10:38:22;99320.25;;;14.47;71.27
38033;BME280;23841;48.524;1.342;2023-11-19T10:40:49;99325.59;;;14.47;71.30
38033;BME280;23841;48.524;1.342;2023-11-19T10:43:16;99325.53;;;14.49;71.52
38033;BME280;23841;48.524;1.342;2023-11-19T10:45:42;99318.44;;;14.48;71.32
38033;BME280;23841;48.524;1.342;2023-11-19T10:48:08;99313.09;;;14.48;71.49
38033;BME280;23841;48.524;1.342;2023-11-19T10:50:34;99316.56;;;14.50;71.54
38033;BME280;23841;48.524;1.342;2023-11-19T10:53:00;99321.91;;;14.50;71.21
38033;BME280;23841;48.524;1.342;2023-11-19T10:55:30;99323.66;;;14.51;71.28
38033;BME280;23841;48.524;1.342;2023-11-19T10:58:00;99323.66;;;14.51;71.22
38033;BME280;23841;48.524;1.342;2023-11-19T11:00:29;99316.50;;;14.51;71.15
38033;BME280;23841;48.524;1.342;2023-11-19T11:03:00;99319.19;;;14.51;71.31
38033;BME280;23841;48.524;1.342;2023-11-19T11:05:26;99312.97;;;14.51;71.11
38033;BME280;23841;48.524;1.342;2023-11-19T11:07:55;99311.13;;;14.53;71.19
38033;BME280;23841;48.524;1.342;2023-11-19T11:10:21;99311.13;;;14.53;71.33
38033;BME280;23841;48.524;1.342;2023-11-19T11:12:48;99321.81;;;14.53;71.04
38033;BME280;23841;48.524;1.342;2023-11-19T11:15:17;99307.50;;;14.54;71.36
38033;BME280;23841;48.524;1.342;2023-11-19T11:17:44;99296.81;;;14.54;71.50
38033;BME280;23841;48.524;1.342;2023-11-19T11:20:11;99294.13;;;14.54;71.30
38033;BME280;23841;48.524;1.342;2023-11-19T11:22:56;99286.94;;;14.56;71.31
38033;BME280;23841;48.524;1.342;2023-11-19T11:25:37;99294.97;;;14.56;71.27
38033;BME280;23841;48.524;1.342;2023-11-19T11:33:48;99286.88;;;14.58;71.33
38033;BME280;23841;48.524;1.342;2023-11-19T11:36:23;99284.22;;;14.58;71.56
38033;BME280;23841;48.524;1.342;2023-11-19T11:38:49;99292.16;;;14.59;71.34
38033;BME280;23841;48.524;1.342;2023-11-19T11:41:22;99301.06;;;14.60;70.99
38033;BME280;23841;48.524;1.342;2023-11-19T11:43:53;99306.41;;;14.60;71.35
38033;BME280;23841;48.524;1.342;2023-11-19T11:49:05;99299.22;;;14.62;71.29
38033;BME280;23841;48.524;1.342;2023-11-19T11:57:21;99287.56;;;14.64;71.35
38033;BME280;23841;48.524;1.342;2023-11-19T11:59:48;99291.97;;;14.65;71.56
38033;BME280;23841;48.524;1.342;2023-11-19T12:02:19;99299.97;;;14.65;71.40
38033;BME280;23841;48.524;1.342;2023-11-19T12:04:48;99290.25;;;14.64;71.44
38033;BME280;23841;48.524;1.342;2023-11-19T12:07:17;99286.59;;;14.65;71.32
38033;BME280;23841;48.524;1.342;2023-11-19T12:09:48;99292.78;;;14.67;71.48
38033;BME280;23841;48.524;1.342;2023-11-19T12:19:59;99266.91;;;14.68;71.40
38033;BME280;23841;48.524;1.342;2023-11-19T12:22:25;99280.22;;;14.70;71.39
38033;BME280;23841;48.524;1.342;2023-11-19T12:24:52;99269.50;;;14.70;71.30
38033;BME280;23841;48.524;1.342;2023-11-19T12:27:19;99258.81;;;14.70;71.41
38033;BME280;23841;48.524;1.342;2023-11-19T12:29:47;99264.16;;;14.70;71.33
38033;BME280;23841;48.524;1.342;2023-11-19T12:32:12;99261.50;;;14.70;71.26
38033;BME280;23841;48.524;1.342;2023-11-19T12:34:38;99260.56;;;14.71;71.21
38033;BME280;23841;48.524;1.342;2023-11-19T12:37:04;99265.91;;;14.71;71.26
38033;BME280;23841;48.524;1.342;2023-11-19T12:39:30;99271.28;;;14.71;71.09
38033;BME280;23841;48.524;1.342;2023-11-19T12:41:56;99265.91;;;14.71;71.13
38033;BME280;23841;48.524;1.342;2023-11-19T12:44:24;99265.06;;;14.70;71.08
38033;BME280;23841;48.524;1.342;2023-11-19T12:47:06;99260.56;;;14.71;70.92
38033;BME280;23841;48.524;1.342;2023-11-19T12:49:33;99257.03;;;14.70;70.92
38033;BME280;23841;48.524;1.342;2023-11-19T12:51:59;99257.91;;;14.71;71.10
38033;BME280;23841;48.524;1.342;2023-11-19T12:54:37;99266.75;;;14.73;71.05
38033;BME280;23841;48.524;1.342;2023-11-19T12:57:03;99264.06;;;14.73;71.14
38033;BME280;23841;48.524;1.342;2023-11-19T12:59:30;99262.31;;;14.72;71.15
38033;BME280;23841;48.524;1.342;2023-11-19T13:01:59;99258.72;;;14.73;71.08
38033;BME280;23841;48.524;1.342;2023-11-19T13:04:45;99264.06;;;14.73;71.08
38033;BME280;23841;48.524;1.342;2023-11-19T13:07:11;99260.50;;;14.72;71.08
38033;BME280;23841;48.524;1.342;2023-11-19T13:09:37;99266.69;;;14.74;71.01
38033;BME280;23841;48.524;1.342;2023-11-19T13:12:15;99281.84;;;14.74;70.94
38033;BME280;23841;48.524;1.342;2023-11-19T13:14:42;99266.69;;;14.74;71.04
38033;BME280;23841;48.524;1.342;2023-11-19T13:17:13;99276.50;;;14.74;70.90
38033;BME280;23841;48.524;1.342;2023-11-19T13:19:39;99281.84;;;14.74;71.13